sensor_id;sensor_type;location;lat;lon;timestamp;temperature;humidity
52459;DHT22;38372;52.902;6.024;2023-07-28T00:02:23;18.00;99.90
52459;DHT22;38372;52.902;6.024;2023-07-28T00:04:49;18.00;99.90
52459;DHT22;38372;52.902;6.024;2023-07-28T00:07:15;18.00;99.90
52459;DHT22;38372;52.902;6.024;2023-07-28T00:09:40;18.00;99.90
52459;DHT22;38372;52.902;6.024;2023-07-28T00:12:06;18.00;99.90
52459;DHT22;38372;52.902;6.024;2023-07-28T00:14:32;18.00;99.90
52459;DHT22;38372;52.902;6.024;2023-07-28T00:16:58;18.00;99.90
52459;DHT22;38372;52.902;6.024;2023-07-28T00:19:24;18.00;99.90
52459;DHT22;38372;52.902;6.024;2023-07-28T00:21:51;18.00;99.90
52459;DHT22;38372;52.902;6.024;2023-07-28T00:24:17;18.00;99.90
52459;DHT22;38372;52.902;6.024;2023-07-28T00:26:43;18.10;99.90
52459;DHT22;38372;52.902;6.024;2023-07-28T00:29:09;18.00;99.90
52459;DHT22;38372;52.902;6.024;2023-07-28T00:31:35;18.10;99.90
52459;DHT22;38372;52.902;6.024;2023-07-28T00:34:02;18.00;99.90
52459;DHT22;38372;52.902;6.024;2023-07-28T00:36:28;18.10;99.90
52459;DHT22;38372;52.902;6.024;2023-07-28T00:38:54;18.00;99.90
52459;DHT22;38372;52.902;6.024;2023-07-28T00:41:20;18.10;99.90
52459;DHT22;38372;52.902;6.024;2023-07-28T00:43:45;18.10;99.90
52459;DHT22;38372;52.902;6.024;2023-07-28T00:46:13;18.00;99.90
52459;DHT22;38372;52.902;6.024;2023-07-28T00:48:39;18.10;99.90
52459;DHT22;38372;52.902;6.024;2023-07-28T00:51:06;18.10;99.90
52459;DHT22;38372;52.902;6.024;2023-07-28T00:53:32;18.10;99.90
52459;DHT22;38372;52.902;6.024;2023-07-28T00:55:58;18.10;99.90
52459;DHT22;38372;52.902;6.024;2023-07-28T00:58:24;18.10;99.90
52459;DHT22;38372;52.902;6.024;2023-07-28T01:00:50;18.00;99.90
52459;DHT22;38372;52.902;6.024;2023-07-28T01:03:17;18.10;99.90
52459;DHT22;38372;52.902;6.024;2023-07-28T01:11:03;18.00;99.90
52459;DHT22;38372;52.902;6.024;2023-07-28T01:13:28;18.00;99.90
52459;DHT22;38372;52.902;6.024;2023-07-28T01:15:54;18.10;99.90
52459;DHT22;38372;52.902;6.024;2023-07-28T01:18:20;18.10;99.90
52459;DHT22;38372;52.902;6.024;2023-07-28T01:20:46;18.00;99.90
52459;DHT22;38372;52.902;6.024;2023-07-28T01:23:44;18.10;99.90
52459;DHT22;38372;52.902;6.024;2023-07-28T01:26:15;18.10;99.90
52459;DHT22;38372;52.902;6.024;2023-07-28T01:28:43;18.00;99.90
52459;DHT22;38372;52.902;6.024;2023-07-28T01:31:09;18.10;99.90
52459;DHT22;38372;52.902;6.024;2023-07-28T01:33:35;18.10;99.90
52459;DHT22;38372;52.902;6.024;2023-07-28T01:36:01;18.10;99.90
52459;DHT22;38372;52.902;6.024;2023-07-28T01:38:27;18.10;99.90
52459;DHT22;38372;52.902;6.024;2023-07-28T01:40:53;18.00;99.90
52459;DHT22;38372;52.902;6.024;2023-07-28T01:43:19;18.00;99.90
52459;DHT22;38372;52.902;6.024;2023-07-28T01:45:44;18.10;99.90
52459;DHT22;38372;52.902;6.024;2023-07-28T01:48:10;18.00;99.90
52459;DHT22;38372;52.902;6.024;2023-07-28T01:50:37;18.10;99.90
52459;DHT22;38372;52.902;6.024;2023-07-28T01:53:05;18.10;99.90
52459;DHT22;38372;52.902;6.024;2023-07-28T01:55:31;18.00;99.90
52459;DHT22;38372;52.902;6.024;2023-07-28T01:57:58;18.00;99.90
52459;DHT22;38372;52.902;6.024;2023-07-28T02:00:25;18.10;99.90
52459;DHT22;38372;52.902;6.024;2023-07-28T02:02:51;18.10;99.90
52459;DHT22;38372;52.902;6.024;2023-07-28T02:05:17;18.10;99.90
52459;DHT22;38372;52.902;6.024;2023-07-28T02:07:43;18.10;99.90
52459;DHT22;38372;52.902;6.024;2023-07-28T02:10:09;18.00;99.90
52459;DHT22;38372;52.902;6.024;2023-07-28T02:12:39;18.00;99.90
52459;DHT22;38372;52.902;6.024;2023-07-28T02:15:06;18.00;99.90
52459;DHT22;38372;52.902;6.024;2023-07-28T02:17:32;18.00;99.90
52459;DHT22;38372;52.902;6.024;2023-07-28T02:19:58;18.00;99.90
52459;DHT22;38372;52.902;6.024;2023-07-28T02:22:23;18.10;99.90
52459;DHT22;38372;52.902;6.024;2023-07-28T02:24:49;18.00;99.90
52459;DHT22;38372;52.902;6.024;2023-07-28T02:27:15;18.00;99.90
52459;DHT22;38372;52.902;6.024;2023-07-28T02:29:42;18.00;99.90
52459;DHT22;38372;52.902;6.024;2023-07-28T02:32:08;18.00;99.90
52459;DHT22;38372;52.902;6.024;2023-07-28T02:34:34;18.00;99.90
52459;DHT22;38372;52.902;6.024;2023-07-28T02:37:00;18.00;99.90
52459;DHT22;38372;52.902;6.024;2023-07-28T02:39:25;18.00;99.90
52459;DHT22;38372;52.902;6.024;2023-07-28T02:41:51;18.00;99.90
52459;DHT22;38372;52.902;6.024;2023-07-28T02:44:17;18.00;99.90
52459;DHT22;38372;52.902;6.024;2023-07-28T02:46:43;18.00;99.90
52459;DHT22;38372;52.902;6.024;2023-07-28T02:49:08;18.00;99.90
52459;DHT22;38372;52.902;6.024;2023-07-28T02:51:34;18.00;99.90
52459;DHT22;38372;52.902;6.024;2023-07-28T02:54:00;18.00;99.90
52459;DHT22;38372;52.902;6.024;2023-07-28T02:56:26;18.00;99.90
52459;DHT22;38372;52.902;6.024;2023-07-28T02:58:52;18.00;99.90
52459;DHT22;38372;52.902;6.024;2023-07-28T03:01:20;18.00;99.90
52459;DHT22;38372;52.902;6.024;2023-07-28T03:03:46;18.00;99.90
52459;DHT22;38372;52.902;6.024;2023-07-28T03:06:13;18.00;99.90
52459;DHT22;38372;52.902;6.024;2023-07-28T03:08:38;18.00;99.90
52459;DHT22;38372;52.902;6.024;2023-07-28T03:11:04;18.00;99.90
52459;DHT22;38372;52.902;6.024;2023-07-28T03:13:30;18.00;99.90
52459;DHT22;38372;52.902;6.024;2023-07-28T03:15:56;18.00;99.90
52459;DHT22;38372;52.902;6.024;2023-07-28T03:18:21;18.00;99.90
52459;DHT22;38372;52.902;6.024;2023-07-28T03:20:47;18.00;99.90
52459;DHT22;38372;52.902;6.024;2023-07-28T03:23:13;18.00;99.90
52459;DHT22;38372;52.902;6.024;2023-07-28T03:25:39;18.00;99.90
52459;DHT22;38372;52.902;6.024;2023-07-28T03:28:05;18.00;99.90
52459;DHT22;38372;52.902;6.024;2023-07-28T03:30:31;18.00;99.90
52459;DHT22;38372;52.902;6.024;2023-07-28T03:32:57;18.00;99.90
52459;DHT22;38372;52.902;6.024;2023-07-28T03:35:22;18.00;99.90
52459;DHT22;38372;52.902;6.024;2023-07-28T03:37:48;18.00;99.90
52459;DHT22;38372;52.902;6.024;2023-07-28T03:40:14;18.00;99.90
52459;DHT22;38372;52.902;6.024;2023-07-28T03:42:40;18.00;99.90
52459;DHT22;38372;52.902;6.024;2023-07-28T03:45:06;18.00;99.90
52459;DHT22;38372;52.902;6.024;2023-07-28T03:47:32;18.00;99.90
52459;DHT22;38372;52.902;6.024;2023-07-28T03:49:58;18.10;99.90
52459;DHT22;38372;52.902;6.024;2023-07-28T03:52:23;18.00;99.90
52459;DHT22;38372;52.902;6.024;2023-07-28T03:54:49;18.10;99.90
52459;DHT22;38372;52.902;6.024;2023-07-28T03:57:15;18.10;99.90
52459;DHT22;38372;52.902;6.024;2023-07-28T03:59:40;18.10;99.90
52459;DHT22;38372;52.902;6.024;2023-07-28T04:02:06;18.00;99.90
52459;DHT22;38372;52.902;6.024;2023-07-28T04:04:32;18.10;99.90
52459;DHT22;38372;52.902;6.024;2023-07-28T04:06:58;18.00;99.90
52459;DHT22;38372;52.902;6.024;2023-07-28T04:09:24;18.00;99.90
52459;DHT22;38372;52.902;6.024;2023-07-28T04:11:50;18.00;99.90
52459;DHT22;38372;52.902;6.024;2023-07-28T04:14:16;18.00;99.90
52459;DHT22;38372;52.902;6.024;2023-07-28T04:16:41;18.00;99.90
52459;DHT22;38372;52.902;6.024;2023-07-28T04:19:07;18.00;99.90
52459;DHT22;38372;52.902;6.024;2023-07-28T04:21:33;18.00;99.90
52459;DHT22;38372;52.902;6.024;2023-07-28T04:23:59;18.00;99.90
52459;DHT22;38372;52.902;6.024;2023-07-28T04:26:25;18.00;99.90
52459;DHT22;38372;52.902;6.024;2023-07-28T04:28:51;18.00;99.90
52459;DHT22;38372;52.902;6.024;2023-07-28T04:31:18;18.00;99.90
52459;DHT22;38372;52.902;6.024;2023-07-28T04:33:44;18.00;99.90
52459;DHT22;38372;52.902;6.024;2023-07-28T04:36:09;18.00;99.90
52459;DHT22;38372;52.902;6.024;2023-07-28T04:38:35;18.10;99.90
52459;DHT22;38372;52.902;6.024;2023-07-28T04:41:01;18.10;99.90
52459;DHT22;38372;52.902;6.024;2023-07-28T04:43:27;18.10;99.90
52459;DHT22;38372;52.902;6.024;2023-07-28T04:45:53;18.10;99.90
52459;DHT22;38372;52.902;6.024;2023-07-28T04:48:19;18.10;99.90
52459;DHT22;38372;52.902;6.024;2023-07-28T04:50:45;18.10;99.90
52459;DHT22;38372;52.902;6.024;2023-07-28T04:53:11;18.10;99.90
52459;DHT22;38372;52.902;6.024;2023-07-28T04:55:36;18.10;99.90
52459;DHT22;38372;52.902;6.024;2023-07-28T04:58:02;18.10;99.90
52459;DHT22;38372;52.902;6.024;2023-07-28T05:00:28;18.10;99.90
52459;DHT22;38372;52.902;6.024;2023-07-28T05:02:54;18.10;99.90
52459;DHT22;38372;52.902;6.024;2023-07-28T05:05:19;18.10;99.90
52459;DHT22;38372;52.902;6.024;2023-07-28T05:07:45;18.20;99.90
52459;DHT22;38372;52.902;6.024;2023-07-28T05:10:12;18.20;99.90
52459;DHT22;38372;52.902;6.024;2023-07-28T05:12:38;18.10;99.90
52459;DHT22;38372;52.902;6.024;2023-07-28T05:15:05;18.20;99.90
52459;DHT22;38372;52.902;6.024;2023-07-28T05:17:31;18.20;99.90
52459;DHT22;38372;52.902;6.024;2023-07-28T05:19:56;18.20;99.90
52459;DHT22;38372;52.902;6.024;2023-07-28T05:22:22;18.20;99.90
52459;DHT22;38372;52.902;6.024;2023-07-28T05:24:48;18.20;99.90
52459;DHT22;38372;52.902;6.024;2023-07-28T05:27:14;18.30;99.90
52459;DHT22;38372;52.902;6.024;2023-07-28T05:29:40;18.30;99.90
52459;DHT22;38372;52.902;6.024;2023-07-28T05:32:06;18.30;99.90
52459;DHT22;38372;52.902;6.024;2023-07-28T05:34:32;18.30;99.90
52459;DHT22;38372;52.902;6.024;2023-07-28T05:36:58;18.40;99.90
52459;DHT22;38372;52.902;6.024;2023-07-28T05:39:23;18.30;99.90
52459;DHT22;38372;52.902;6.024;2023-07-28T05:41:49;18.40;99.90
52459;DHT22;38372;52.902;6.024;2023-07-28T05:44:15;18.40;99.90
52459;DHT22;38372;52.902;6.024;2023-07-28T05:46:43;18.40;99.90
52459;DHT22;38372;52.902;6.024;2023-07-28T05:49:11;18.40;99.90
52459;DHT22;38372;52.902;6.024;2023-07-28T05:51:37;18.40;99.90
52459;DHT22;38372;52.902;6.024;2023-07-28T05:54:02;18.40;99.90
52459;DHT22;38372;52.902;6.024;2023-07-28T05:56:28;18.40;99.90
52459;DHT22;38372;52.902;6.024;2023-07-28T05:58:55;18.40;99.90
52459;DHT22;38372;52.902;6.024;2023-07-28T06:01:21;18.40;99.90
52459;DHT22;38372;52.902;6.024;2023-07-28T06:03:46;18.40;99.90
52459;DHT22;38372;52.902;6.024;2023-07-28T06:06:12;18.40;99.90
52459;DHT22;38372;52.902;6.024;2023-07-28T06:08:38;18.40;99.90
52459;DHT22;38372;52.902;6.024;2023-07-28T06:11:05;18.50;99.90
52459;DHT22;38372;52.902;6.024;2023-07-28T06:13:31;18.50;99.90
52459;DHT22;38372;52.902;6.024;2023-07-28T06:15:57;18.50;99.90
52459;DHT22;38372;52.902;6.024;2023-07-28T06:18:24;18.50;99.90
52459;DHT22;38372;52.902;6.024;2023-07-28T06:20:50;18.50;99.90
52459;DHT22;38372;52.902;6.024;2023-07-28T06:23:16;18.60;99.90
52459;DHT22;38372;52.902;6.024;2023-07-28T06:25:42;18.60;99.90
52459;DHT22;38372;52.902;6.024;2023-07-28T06:28:12;18.60;99.90
52459;DHT22;38372;52.902;6.024;2023-07-28T06:30:38;18.60;99.90
52459;DHT22;38372;52.902;6.024;2023-07-28T06:33:06;18.60;99.90
52459;DHT22;38372;52.902;6.024;2023-07-28T06:35:32;18.60;99.90
52459;DHT22;38372;52.902;6.024;2023-07-28T06:37:59;18.60;99.90
52459;DHT22;38372;52.902;6.024;2023-07-28T06:40:25;18.60;99.90
52459;DHT22;38372;52.902;6.024;2023-07-28T06:42:51;18.60;99.90
52459;DHT22;38372;52.902;6.024;2023-07-28T06:45:17;18.60;99.90
52459;DHT22;38372;52.902;6.024;2023-07-28T06:47:43;18.70;99.90
52459;DHT22;38372;52.902;6.024;2023-07-28T06:50:11;18.70;99.90
52459;DHT22;38372;52.902;6.024;2023-07-28T06:52:37;18.70;99.90
52459;DHT22;38372;52.902;6.024;2023-07-28T06:55:03;18.70;99.90
52459;DHT22;38372;52.902;6.024;2023-07-28T06:57:29;18.80;99.90
52459;DHT22;38372;52.902;6.024;2023-07-28T06:59:56;18.80;99.90
52459;DHT22;38372;52.902;6.024;2023-07-28T07:02:22;18.90;99.90
52459;DHT22;38372;52.902;6.024;2023-07-28T07:04:48;19.00;99.90
52459;DHT22;38372;52.902;6.024;2023-07-28T07:07:13;19.00;99.90
52459;DHT22;38372;52.902;6.024;2023-07-28T07:09:39;19.00;99.90
52459;DHT22;38372;52.902;6.024;2023-07-28T07:12:09;19.10;99.90
52459;DHT22;38372;52.902;6.024;2023-07-28T07:14:35;19.10;99.90
52459;DHT22;38372;52.902;6.024;2023-07-28T07:17:01;19.20;99.90
52459;DHT22;38372;52.902;6.024;2023-07-28T07:19:30;19.30;99.90
52459;DHT22;38372;52.902;6.024;2023-07-28T07:21:56;19.60;99.90
52459;DHT22;38372;52.902;6.024;2023-07-28T07:24:22;19.90;99.90
52459;DHT22;38372;52.902;6.024;2023-07-28T07:26:47;19.90;99.90
52459;DHT22;38372;52.902;6.024;2023-07-28T07:29:13;19.90;99.90
52459;DHT22;38372;52.902;6.024;2023-07-28T07:31:40;19.90;99.90
52459;DHT22;38372;52.902;6.024;2023-07-28T07:34:06;20.00;99.90
52459;DHT22;38372;52.902;6.024;2023-07-28T07:36:31;20.10;99.90
52459;DHT22;38372;52.902;6.024;2023-07-28T07:38:57;20.20;99.90
52459;DHT22;38372;52.902;6.024;2023-07-28T07:41:23;20.20;99.90
52459;DHT22;38372;52.902;6.024;2023-07-28T07:43:51;20.30;99.90
52459;DHT22;38372;52.902;6.024;2023-07-28T07:46:18;20.50;99.90
52459;DHT22;38372;52.902;6.024;2023-07-28T07:48:45;20.60;99.90
52459;DHT22;38372;52.902;6.024;2023-07-28T07:51:11;20.70;99.90
52459;DHT22;38372;52.902;6.024;2023-07-28T07:53:37;20.70;99.90
52459;DHT22;38372;52.902;6.024;2023-07-28T07:56:06;20.80;99.90
52459;DHT22;38372;52.902;6.024;2023-07-28T07:58:33;20.90;99.90
52459;DHT22;38372;52.902;6.024;2023-07-28T08:00:59;21.20;99.90
52459;DHT22;38372;52.902;6.024;2023-07-28T08:03:25;21.30;99.90
52459;DHT22;38372;52.902;6.024;2023-07-28T08:05:52;21.30;99.90
52459;DHT22;38372;52.902;6.024;2023-07-28T08:08:18;21.30;99.90
52459;DHT22;38372;52.902;6.024;2023-07-28T08:10:49;21.20;99.90
52459;DHT22;38372;52.902;6.024;2023-07-28T08:13:15;21.00;99.90
52459;DHT22;38372;52.902;6.024;2023-07-28T08:15:44;21.00;99.90
52459;DHT22;38372;52.902;6.024;2023-07-28T08:18:13;20.90;99.90
52459;DHT22;38372;52.902;6.024;2023-07-28T08:20:39;20.80;99.90
52459;DHT22;38372;52.902;6.024;2023-07-28T08:23:05;20.70;99.90
52459;DHT22;38372;52.902;6.024;2023-07-28T08:25:31;20.70;99.90
52459;DHT22;38372;52.902;6.024;2023-07-28T08:27:57;20.70;99.90
52459;DHT22;38372;52.902;6.024;2023-07-28T08:30:22;20.70;99.90
52459;DHT22;38372;52.902;6.024;2023-07-28T08:32:48;20.70;99.90
52459;DHT22;38372;52.902;6.024;2023-07-28T08:35:15;20.80;99.90
52459;DHT22;38372;52.902;6.024;2023-07-28T08:37:40;21.00;99.90
52459;DHT22;38372;52.902;6.024;2023-07-28T08:40:07;21.10;99.90
52459;DHT22;38372;52.902;6.024;2023-07-28T08:42:37;21.10;99.90
52459;DHT22;38372;52.902;6.024;2023-07-28T08:45:05;21.10;99.90
52459;DHT22;38372;52.902;6.024;2023-07-28T08:47:32;21.20;99.90
52459;DHT22;38372;52.902;6.024;2023-07-28T08:49:58;21.30;99.90
52459;DHT22;38372;52.902;6.024;2023-07-28T08:52:24;21.20;99.90
52459;DHT22;38372;52.902;6.024;2023-07-28T08:54:50;21.40;99.90
52459;DHT22;38372;52.902;6.024;2023-07-28T08:57:16;21.60;99.90
52459;DHT22;38372;52.902;6.024;2023-07-28T08:59:42;21.90;99.90
52459;DHT22;38372;52.902;6.024;2023-07-28T09:02:18;22.10;99.90
52459;DHT22;38372;52.902;6.024;2023-07-28T09:04:45;22.40;99.90
52459;DHT22;38372;52.902;6.024;2023-07-28T09:07:12;22.70;99.90
52459;DHT22;38372;52.902;6.024;2023-07-28T09:09:38;23.00;99.90
52459;DHT22;38372;52.902;6.024;2023-07-28T09:12:04;23.20;99.90
52459;DHT22;38372;52.902;6.024;2023-07-28T09:14:30;23.30;99.90
52459;DHT22;38372;52.902;6.024;2023-07-28T09:17:06;23.20;99.90
52459;DHT22;38372;52.902;6.024;2023-07-28T09:19:33;23.00;99.90
52459;DHT22;38372;52.902;6.024;2023-07-28T09:22:00;22.70;99.90
52459;DHT22;38372;52.902;6.024;2023-07-28T09:24:33;22.70;99.90
52459;DHT22;38372;52.902;6.024;2023-07-28T09:27:00;22.80;99.90
52459;DHT22;38372;52.902;6.024;2023-07-28T09:29:27;23.20;99.90
52459;DHT22;38372;52.902;6.024;2023-07-28T09:32:07;23.40;99.90
52459;DHT22;38372;52.902;6.024;2023-07-28T09:34:34;23.50;99.90
52459;DHT22;38372;52.902;6.024;2023-07-28T09:37:00;23.50;99.90
52459;DHT22;38372;52.902;6.024;2023-07-28T09:39:27;23.50;99.90
52459;DHT22;38372;52.902;6.024;2023-07-28T09:41:54;23.50;99.90
52459;DHT22;38372;52.902;6.024;2023-07-28T09:44:24;23.50;99.90
52459;DHT22;38372;52.902;6.024;2023-07-28T09:46:54;23.70;99.90
52459;DHT22;38372;52.902;6.024;2023-07-28T09:49:27;24.00;99.90
52459;DHT22;38372;52.902;6.024;2023-07-28T09:51:54;24.20;99.90
52459;DHT22;38372;52.902;6.024;2023-07-28T09:54:29;24.20;99.90
52459;DHT22;38372;52.902;6.024;2023-07-28T09:56:59;24.00;99.90
52459;DHT22;38372;52.902;6.024;2023-07-28T09:59:45;24.10;99.90
52459;DHT22;38372;52.902;6.024;2023-07-28T10:02:12;24.30;99.90
52459;DHT22;38372;52.902;6.024;2023-07-28T10:04:38;24.30;99.90
52459;DHT22;38372;52.902;6.024;2023-07-28T10:07:05;24.20;99.90
52459;DHT22;38372;52.902;6.024;2023-07-28T10:09:33;24.20;99.90
52459;DHT22;38372;52.902;6.024;2023-07-28T10:12:00;24.10;99.90
52459;DHT22;38372;52.902;6.024;2023-07-28T10:14:32;24.10;99.90
52459;DHT22;38372;52.902;6.024;2023-07-28T10:17:00;23.90;99.90
52459;DHT22;38372;52.902;6.024;2023-07-28T10:19:33;23.90;99.90
52459;DHT22;38372;52.902;6.024;2023-07-28T10:22:07;23.70;99.90
52459;DHT22;38372;52.902;6.024;2023-07-28T10:24:53;23.60;99.90
52459;DHT22;38372;52.902;6.024;2023-07-28T10:30:00;23.50;99.90
52459;DHT22;38372;52.902;6.024;2023-07-28T10:32:40;23.60;99.90
52459;DHT22;38372;52.902;6.024;2023-07-28T10:35:29;23.70;99.90
52459;DHT22;38372;52.902;6.024;2023-07-28T10:37:57;23.60;99.90
52459;DHT22;38372;52.902;6.024;2023-07-28T10:40:28;23.50;99.90
52459;DHT22;38372;52.902;6.024;2023-07-28T10:42:55;23.30;99.90
52459;DHT22;38372;52.902;6.024;2023-07-28T10:45:23;23.30;99.90
52459;DHT22;38372;52.902;6.024;2023-07-28T10:47:51;23.40;99.90
52459;DHT22;38372;52.902;6.024;2023-07-28T10:50:18;23.60;99.90
52459;DHT22;38372;52.902;6.024;2023-07-28T10:52:45;24.00;99.90
52459;DHT22;38372;52.902;6.024;2023-07-28T10:55:16;24.40;99.90
52459;DHT22;38372;52.902;6.024;2023-07-28T10:57:43;24.50;99.90
52459;DHT22;38372;52.902;6.024;2023-07-28T11:00:11;24.20;99.90
52459;DHT22;38372;52.902;6.024;2023-07-28T11:02:47;24.10;99.90
52459;DHT22;38372;52.902;6.024;2023-07-28T11:05:19;23.90;99.90
52459;DHT22;38372;52.902;6.024;2023-07-28T11:07:45;23.70;99.90
52459;DHT22;38372;52.902;6.024;2023-07-28T11:10:11;23.70;99.90
52459;DHT22;38372;52.902;6.024;2023-07-28T11:12:41;23.90;99.90
52459;DHT22;38372;52.902;6.024;2023-07-28T11:15:11;24.00;99.90
52459;DHT22;38372;52.902;6.024;2023-07-28T11:17:43;24.20;99.90
52459;DHT22;38372;52.902;6.024;2023-07-28T11:20:23;24.60;99.90
52459;DHT22;38372;52.902;6.024;2023-07-28T11:22:55;24.70;99.90
52459;DHT22;38372;52.902;6.024;2023-07-28T11:25:21;24.50;99.90
52459;DHT22;38372;52.902;6.024;2023-07-28T11:27:48;24.10;99.90
52459;DHT22;38372;52.902;6.024;2023-07-28T11:30:15;24.00;99.90
52459;DHT22;38372;52.902;6.024;2023-07-28T11:32:43;24.00;99.90
52459;DHT22;38372;52.902;6.024;2023-07-28T11:35:11;23.90;99.90
52459;DHT22;38372;52.902;6.024;2023-07-28T11:37:39;23.90;99.90
52459;DHT22;38372;52.902;6.024;2023-07-28T11:40:06;23.80;99.90
52459;DHT22;38372;52.902;6.024;2023-07-28T11:42:37;23.80;99.90
52459;DHT22;38372;52.902;6.024;2023-07-28T11:45:04;23.80;99.90
52459;DHT22;38372;52.902;6.024;2023-07-28T11:47:30;23.90;99.90
52459;DHT22;38372;52.902;6.024;2023-07-28T11:49:57;24.10;99.90
52459;DHT22;38372;52.902;6.024;2023-07-28T11:52:33;24.50;99.90
52459;DHT22;38372;52.902;6.024;2023-07-28T11:55:00;24.70;99.90
52459;DHT22;38372;52.902;6.024;2023-07-28T11:57:28;24.60;99.90
52459;DHT22;38372;52.902;6.024;2023-07-28T11:59:57;24.40;99.90
52459;DHT22;38372;52.902;6.024;2023-07-28T12:02:30;24.20;99.90
52459;DHT22;38372;52.902;6.024;2023-07-28T12:04:57;24.00;99.90
52459;DHT22;38372;52.902;6.024;2023-07-28T12:07:33;23.80;99.90
52459;DHT22;38372;52.902;6.024;2023-07-28T12:10:03;23.70;99.90
52459;DHT22;38372;52.902;6.024;2023-07-28T12:12:39;23.60;99.90
52459;DHT22;38372;52.902;6.024;2023-07-28T12:15:25;23.90;99.90
52459;DHT22;38372;52.902;6.024;2023-07-28T12:18:13;24.10;99.90
52459;DHT22;38372;52.902;6.024;2023-07-28T12:20:44;24.30;99.90
52459;DHT22;38372;52.902;6.024;2023-07-28T12:23:20;24.50;99.90
52459;DHT22;38372;52.902;6.024;2023-07-28T12:25:46;24.50;99.90
52459;DHT22;38372;52.902;6.024;2023-07-28T12:28:12;24.50;99.90
52459;DHT22;38372;52.902;6.024;2023-07-28T12:30:38;24.40;99.90
52459;DHT22;38372;52.902;6.024;2023-07-28T12:33:05;24.10;99.90
52459;DHT22;38372;52.902;6.024;2023-07-28T12:35:31;24.00;99.90
52459;DHT22;38372;52.902;6.024;2023-07-28T12:38:03;24.00;99.90
52459;DHT22;38372;52.902;6.024;2023-07-28T12:40:33;24.20;99.90
52459;DHT22;38372;52.902;6.024;2023-07-28T12:43:02;24.30;99.90
52459;DHT22;38372;52.902;6.024;2023-07-28T12:45:28;24.20;99.90
52459;DHT22;38372;52.902;6.024;2023-07-28T12:47:55;24.30;99.90
52459;DHT22;38372;52.902;6.024;2023-07-28T12:50:21;24.30;99.90
52459;DHT22;38372;52.902;6.024;2023-07-28T12:52:48;24.30;99.90
52459;DHT22;38372;52.902;6.024;2023-07-28T12:55:14;24.20;99.90
52459;DHT22;38372;52.902;6.024;2023-07-28T12:57:41;24.20;99.90
52459;DHT22;38372;52.902;6.024;2023-07-28T13:00:07;24.30;99.90
52459;DHT22;38372;52.902;6.024;2023-07-28T13:02:41;24.40;99.90
52459;DHT22;38372;52.902;6.024;2023-07-28T13:05:12;24.50;99.90
52459;DHT22;38372;52.902;6.024;2023-07-28T13:07:38;24.60;99.90
52459;DHT22;38372;52.902;6.024;2023-07-28T13:10:06;24.60;99.90
52459;DHT22;38372;52.902;6.024;2023-07-28T13:12:32;24.60;99.90
52459;DHT22;38372;52.902;6.024;2023-07-28T13:14:58;24.60;99.90
52459;DHT22;38372;52.902;6.024;2023-07-28T13:17:24;24.50;99.90
52459;DHT22;38372;52.902;6.024;2023-07-28T13:19:49;24.40;99.90
52459;DHT22;38372;52.902;6.024;2023-07-28T13:22:15;24.40;99.90
52459;DHT22;38372;52.902;6.024;2023-07-28T13:24:41;24.40;99.90
52459;DHT22;38372;52.902;6.024;2023-07-28T13:27:09;24.40;99.90
52459;DHT22;38372;52.902;6.024;2023-07-28T13:29:35;24.30;99.90
52459;DHT22;38372;52.902;6.024;2023-07-28T13:32:00;24.20;99.90
52459;DHT22;38372;52.902;6.024;2023-07-28T13:34:27;24.30;99.90
52459;DHT22;38372;52.902;6.024;2023-07-28T13:36:53;24.50;99.90
52459;DHT22;38372;52.902;6.024;2023-07-28T13:39:19;24.80;99.90
52459;DHT22;38372;52.902;6.024;2023-07-28T13:41:45;24.90;99.90
52459;DHT22;38372;52.902;6.024;2023-07-28T13:44:11;24.90;99.90
52459;DHT22;38372;52.902;6.024;2023-07-28T13:46:36;24.70;99.90
52459;DHT22;38372;52.902;6.024;2023-07-28T13:49:02;24.70;99.90
52459;DHT22;38372;52.902;6.024;2023-07-28T13:51:28;24.60;99.90
52459;DHT22;38372;52.902;6.024;2023-07-28T13:53:54;24.50;99.90
52459;DHT22;38372;52.902;6.024;2023-07-28T13:56:20;24.40;99.90
52459;DHT22;38372;52.902;6.024;2023-07-28T13:58:46;24.50;99.90
52459;DHT22;38372;52.902;6.024;2023-07-28T14:01:12;24.60;99.90
52459;DHT22;38372;52.902;6.024;2023-07-28T14:03:37;24.70;99.90
52459;DHT22;38372;52.902;6.024;2023-07-28T14:06:03;24.80;99.90
52459;DHT22;38372;52.902;6.024;2023-07-28T14:08:29;24.90;99.90
52459;DHT22;38372;52.902;6.024;2023-07-28T14:10:55;25.20;99.90
52459;DHT22;38372;52.902;6.024;2023-07-28T14:13:21;25.00;99.90
52459;DHT22;38372;52.902;6.024;2023-07-28T14:15:50;24.80;99.90
52459;DHT22;38372;52.902;6.024;2023-07-28T14:18:16;24.80;99.90
52459;DHT22;38372;52.902;6.024;2023-07-28T14:20:42;24.80;99.90
52459;DHT22;38372;52.902;6.024;2023-07-28T14:23:28;24.80;99.90
52459;DHT22;38372;52.902;6.024;2023-07-28T14:25:54;24.80;99.90
52459;DHT22;38372;52.902;6.024;2023-07-28T14:28:21;24.80;99.90
52459;DHT22;38372;52.902;6.024;2023-07-28T14:30:50;25.20;99.90
52459;DHT22;38372;52.902;6.024;2023-07-28T14:33:17;25.60;99.90
52459;DHT22;38372;52.902;6.024;2023-07-28T14:35:44;25.60;99.90
52459;DHT22;38372;52.902;6.024;2023-07-28T14:38:11;25.50;99.90
52459;DHT22;38372;52.902;6.024;2023-07-28T14:40:37;25.50;99.90
52459;DHT22;38372;52.902;6.024;2023-07-28T14:43:03;25.60;99.90
52459;DHT22;38372;52.902;6.024;2023-07-28T14:45:30;25.20;99.90
52459;DHT22;38372;52.902;6.024;2023-07-28T14:47:55;24.50;99.90
52459;DHT22;38372;52.902;6.024;2023-07-28T14:50:21;24.10;99.90
52459;DHT22;38372;52.902;6.024;2023-07-28T14:52:48;23.80;99.90
52459;DHT22;38372;52.902;6.024;2023-07-28T14:55:14;23.70;99.90
52459;DHT22;38372;52.902;6.024;2023-07-28T14:57:40;24.30;99.90
52459;DHT22;38372;52.902;6.024;2023-07-28T15:00:06;24.80;99.90
52459;DHT22;38372;52.902;6.024;2023-07-28T15:02:33;24.70;99.90
52459;DHT22;38372;52.902;6.024;2023-07-28T15:04:59;24.50;99.90
52459;DHT22;38372;52.902;6.024;2023-07-28T15:07:25;24.40;99.90
52459;DHT22;38372;52.902;6.024;2023-07-28T15:09:50;24.20;99.90
52459;DHT22;38372;52.902;6.024;2023-07-28T15:12:16;23.90;99.90
52459;DHT22;38372;52.902;6.024;2023-07-28T15:14:42;23.60;99.90
52459;DHT22;38372;52.902;6.024;2023-07-28T15:17:08;23.40;99.90
52459;DHT22;38372;52.902;6.024;2023-07-28T15:19:33;23.20;99.90
52459;DHT22;38372;52.902;6.024;2023-07-28T15:21:59;23.20;99.90
52459;DHT22;38372;52.902;6.024;2023-07-28T15:24:25;23.20;99.90
52459;DHT22;38372;52.902;6.024;2023-07-28T15:26:51;23.20;99.90
52459;DHT22;38372;52.902;6.024;2023-07-28T15:29:18;23.20;99.90
52459;DHT22;38372;52.902;6.024;2023-07-28T15:31:46;23.20;99.90
52459;DHT22;38372;52.902;6.024;2023-07-28T15:34:13;23.10;99.90
52459;DHT22;38372;52.902;6.024;2023-07-28T15:36:38;23.00;99.90
52459;DHT22;38372;52.902;6.024;2023-07-28T15:39:04;23.10;99.90